sensor_id;sensor_type;location;lat;lon;timestamp;P1;durP1;ratioP1;P2;durP2;ratioP2
48993;SDS011;34804;49.214;12.276;2023-06-24T00:01:02;13.93;;;5.38;;
48993;SDS011;34804;49.214;12.276;2023-06-24T00:03:29;7.93;;;4.68;;
48993;SDS011;34804;49.214;12.276;2023-06-24T00:05:56;7.80;;;5.03;;
48993;SDS011;34804;49.214;12.276;2023-06-24T00:08:23;7.85;;;4.95;;
48993;SDS011;34804;49.214;12.276;2023-06-24T00:10:50;10.48;;;4.60;;
48993;SDS011;34804;49.214;12.276;2023-06-24T00:13:17;11.48;;;5.00;;
48993;SDS011;34804;49.214;12.276;2023-06-24T00:15:44;7.50;;;4.53;;
48993;SDS011;34804;49.214;12.276;2023-06-24T00:18:10;11.65;;;4.80;;
48993;SDS011;34804;49.214;12.276;2023-06-24T00:20:38;7.22;;;4.43;;
48993;SDS011;34804;49.214;12.276;2023-06-24T00:23:05;8.85;;;4.95;;
48993;SDS011;34804;49.214;12.276;2023-06-24T00:25:32;8.43;;;4.88;;
48993;SDS011;34804;49.214;12.276;2023-06-24T00:27:59;10.13;;;4.47;;
48993;SDS011;34804;49.214;12.276;2023-06-24T00:30:26;7.22;;;4.90;;
48993;SDS011;34804;49.214;12.276;2023-06-24T00:32:53;7.35;;;4.22;;
48993;SDS011;34804;49.214;12.276;2023-06-24T00:35:20;7.65;;;4.40;;
48993;SDS011;34804;49.214;12.276;2023-06-24T00:37:47;7.53;;;4.18;;
48993;SDS011;34804;49.214;12.276;2023-06-24T00:40:14;7.82;;;4.90;;
48993;SDS011;34804;49.214;12.276;2023-06-24T00:42:43;10.45;;;4.85;;
48993;SDS011;34804;49.214;12.276;2023-06-24T00:45:11;7.68;;;4.28;;
48993;SDS011;34804;49.214;12.276;2023-06-24T00:47:38;8.32;;;4.53;;
48993;SDS011;34804;49.214;12.276;2023-06-24T00:50:06;8.02;;;4.40;;
48993;SDS011;34804;49.214;12.276;2023-06-24T00:52:33;8.73;;;4.38;;
48993;SDS011;34804;49.214;12.276;2023-06-24T00:55:03;6.90;;;4.30;;
48993;SDS011;34804;49.214;12.276;2023-06-24T00:57:30;8.07;;;4.72;;
48993;SDS011;34804;49.214;12.276;2023-06-24T00:59:58;6.82;;;4.28;;
48993;SDS011;34804;49.214;12.276;2023-06-24T01:02:26;9.95;;;4.45;;
48993;SDS011;34804;49.214;12.276;2023-06-24T01:04:54;7.35;;;4.95;;
48993;SDS011;34804;49.214;12.276;2023-06-24T01:07:23;9.02;;;4.60;;
48993;SDS011;34804;49.214;12.276;2023-06-24T01:09:50;10.35;;;5.07;;
48993;SDS011;34804;49.214;12.276;2023-06-24T01:12:17;11.75;;;5.25;;
48993;SDS011;34804;49.214;12.276;2023-06-24T01:14:44;16.63;;;4.57;;
48993;SDS011;34804;49.214;12.276;2023-06-24T01:17:22;9.55;;;4.93;;
48993;SDS011;34804;49.214;12.276;2023-06-24T01:20:01;10.20;;;5.07;;
48993;SDS011;34804;49.214;12.276;2023-06-24T01:22:41;10.63;;;5.35;;
48993;SDS011;34804;49.214;12.276;2023-06-24T01:28:56;10.73;;;5.35;;
48993;SDS011;34804;49.214;12.276;2023-06-24T01:34:24;8.52;;;5.28;;
48993;SDS011;34804;49.214;12.276;2023-06-24T01:37:16;11.93;;;5.80;;
48993;SDS011;34804;49.214;12.276;2023-06-24T01:39:47;9.73;;;5.40;;
48993;SDS011;34804;49.214;12.276;2023-06-24T01:42:23;8.60;;;5.18;;
48993;SDS011;34804;49.214;12.276;2023-06-24T01:44:50;12.70;;;5.40;;
48993;SDS011;34804;49.214;12.276;2023-06-24T01:47:20;9.55;;;5.38;;
48993;SDS011;34804;49.214;12.276;2023-06-24T01:49:49;10.02;;;4.97;;
48993;SDS011;34804;49.214;12.276;2023-06-24T01:52:22;11.95;;;5.65;;
48993;SDS011;34804;49.214;12.276;2023-06-24T01:54:52;9.65;;;4.95;;
48993;SDS011;34804;49.214;12.276;2023-06-24T01:57:24;13.18;;;5.13;;
48993;SDS011;34804;49.214;12.276;2023-06-24T01:59:53;7.82;;;4.68;;
48993;SDS011;34804;49.214;12.276;2023-06-24T02:02:21;12.60;;;5.50;;
48993;SDS011;34804;49.214;12.276;2023-06-24T02:04:53;9.05;;;5.03;;
48993;SDS011;34804;49.214;12.276;2023-06-24T02:07:21;13.68;;;6.32;;
48993;SDS011;34804;49.214;12.276;2023-06-24T02:09:50;14.52;;;6.30;;
48993;SDS011;34804;49.214;12.276;2023-06-24T02:12:17;13.07;;;5.60;;
48993;SDS011;34804;49.214;12.276;2023-06-24T02:14:45;10.40;;;5.90;;
48993;SDS011;34804;49.214;12.276;2023-06-24T02:17:14;9.65;;;5.53;;
48993;SDS011;34804;49.214;12.276;2023-06-24T02:19:43;6.85;;;4.47;;
48993;SDS011;34804;49.214;12.276;2023-06-24T02:22:10;10.60;;;5.78;;
48993;SDS011;34804;49.214;12.276;2023-06-24T02:24:38;9.32;;;5.28;;
48993;SDS011;34804;49.214;12.276;2023-06-24T02:27:07;9.77;;;4.95;;
48993;SDS011;34804;49.214;12.276;2023-06-24T02:29:35;8.55;;;5.30;;
48993;SDS011;34804;49.214;12.276;2023-06-24T02:32:03;7.85;;;5.28;;
48993;SDS011;34804;49.214;12.276;2023-06-24T02:34:32;9.13;;;4.43;;
48993;SDS011;34804;49.214;12.276;2023-06-24T02:36:59;9.95;;;6.05;;
48993;SDS011;34804;49.214;12.276;2023-06-24T02:39:26;8.48;;;5.50;;
48993;SDS011;34804;49.214;12.276;2023-06-24T02:41:54;13.85;;;5.72;;
48993;SDS011;34804;49.214;12.276;2023-06-24T02:44:21;14.50;;;6.35;;
48993;SDS011;34804;49.214;12.276;2023-06-24T02:46:48;17.15;;;5.90;;
48993;SDS011;34804;49.214;12.276;2023-06-24T02:49:16;15.80;;;6.20;;
48993;SDS011;34804;49.214;12.276;2023-06-24T02:51:44;12.27;;;5.72;;
48993;SDS011;34804;49.214;12.276;2023-06-24T02:54:11;14.68;;;6.05;;
48993;SDS011;34804;49.214;12.276;2023-06-24T02:56:39;10.18;;;5.65;;
48993;SDS011;34804;49.214;12.276;2023-06-24T02:59:08;9.98;;;5.53;;
48993;SDS011;34804;49.214;12.276;2023-06-24T03:01:35;13.43;;;5.30;;
48993;SDS011;34804;49.214;12.276;2023-06-24T03:04:05;9.40;;;5.30;;
48993;SDS011;34804;49.214;12.276;2023-06-24T03:06:32;12.38;;;5.20;;
48993;SDS011;34804;49.214;12.276;2023-06-24T03:09:03;10.25;;;5.82;;
48993;SDS011;34804;49.214;12.276;2023-06-24T03:11:30;11.38;;;6.47;;
48993;SDS011;34804;49.214;12.276;2023-06-24T03:13:59;10.88;;;6.78;;
48993;SDS011;34804;49.214;12.276;2023-06-24T03:16:26;10.02;;;5.60;;
48993;SDS011;34804;49.214;12.276;2023-06-24T03:18:53;8.35;;;5.25;;
48993;SDS011;34804;49.214;12.276;2023-06-24T03:21:20;12.75;;;7.05;;
48993;SDS011;34804;49.214;12.276;2023-06-24T03:23:46;10.68;;;5.50;;
48993;SDS011;34804;49.214;12.276;2023-06-24T03:26:13;20.45;;;6.63;;
48993;SDS011;34804;49.214;12.276;2023-06-24T03:28:40;16.80;;;5.35;;
48993;SDS011;34804;49.214;12.276;2023-06-24T03:31:07;14.02;;;5.22;;
48993;SDS011;34804;49.214;12.276;2023-06-24T03:33:34;13.60;;;6.22;;
48993;SDS011;34804;49.214;12.276;2023-06-24T03:36:00;14.15;;;5.82;;
48993;SDS011;34804;49.214;12.276;2023-06-24T03:38:27;8.88;;;5.78;;
48993;SDS011;34804;49.214;12.276;2023-06-24T03:40:54;9.45;;;5.70;;
48993;SDS011;34804;49.214;12.276;2023-06-24T03:43:21;14.93;;;6.68;;
48993;SDS011;34804;49.214;12.276;2023-06-24T03:45:48;8.82;;;6.47;;
48993;SDS011;34804;49.214;12.276;2023-06-24T03:48:15;11.05;;;6.10;;
48993;SDS011;34804;49.214;12.276;2023-06-24T03:50:42;14.23;;;7.25;;
48993;SDS011;34804;49.214;12.276;2023-06-24T03:53:08;10.77;;;6.65;;
48993;SDS011;34804;49.214;12.276;2023-06-24T03:55:35;11.65;;;7.13;;
48993;SDS011;34804;49.214;12.276;2023-06-24T03:58:02;12.02;;;6.82;;
48993;SDS011;34804;49.214;12.276;2023-06-24T04:00:29;15.90;;;7.10;;
48993;SDS011;34804;49.214;12.276;2023-06-24T04:02:56;15.80;;;7.88;;
48993;SDS011;34804;49.214;12.276;2023-06-24T04:05:27;15.77;;;7.57;;
48993;SDS011;34804;49.214;12.276;2023-06-24T04:07:55;16.30;;;7.18;;
48993;SDS011;34804;49.214;12.276;2023-06-24T04:10:22;13.55;;;7.13;;
48993;SDS011;34804;49.214;12.276;2023-06-24T04:12:48;14.48;;;6.47;;
48993;SDS011;34804;49.214;12.276;2023-06-24T04:15:15;11.63;;;6.88;;
48993;SDS011;34804;49.214;12.276;2023-06-24T04:17:42;12.70;;;6.93;;
48993;SDS011;34804;49.214;12.276;2023-06-24T04:20:09;10.45;;;6.35;;
48993;SDS011;34804;49.214;12.276;2023-06-24T04:22:37;10.95;;;6.25;;
48993;SDS011;34804;49.214;12.276;2023-06-24T04:25:04;18.35;;;7.78;;
48993;SDS011;34804;49.214;12.276;2023-06-24T04:27:35;14.18;;;6.80;;
48993;SDS011;34804;49.214;12.276;2023-06-24T04:30:02;19.77;;;8.10;;
48993;SDS011;34804;49.214;12.276;2023-06-24T04:32:30;15.27;;;7.72;;
48993;SDS011;34804;49.214;12.276;2023-06-24T04:35:00;17.30;;;7.32;;
48993;SDS011;34804;49.214;12.276;2023-06-24T04:37:30;17.10;;;7.03;;
48993;SDS011;34804;49.214;12.276;2023-06-24T04:39:57;15.57;;;6.93;;
48993;SDS011;34804;49.214;12.276;2023-06-24T04:42:24;15.23;;;6.65;;
48993;SDS011;34804;49.214;12.276;2023-06-24T04:44:51;15.85;;;6.32;;
48993;SDS011;34804;49.214;12.276;2023-06-24T04:47:18;13.95;;;6.22;;
48993;SDS011;34804;49.214;12.276;2023-06-24T04:49:45;13.20;;;6.45;;
48993;SDS011;34804;49.214;12.276;2023-06-24T04:52:12;12.55;;;6.18;;
48993;SDS011;34804;49.214;12.276;2023-06-24T04:54:39;13.30;;;6.07;;
48993;SDS011;34804;49.214;12.276;2023-06-24T04:57:07;11.73;;;6.40;;
48993;SDS011;34804;49.214;12.276;2023-06-24T04:59:35;11.90;;;6.03;;
48993;SDS011;34804;49.214;12.276;2023-06-24T05:02:04;11.15;;;5.97;;
48993;SDS011;34804;49.214;12.276;2023-06-24T05:04:31;10.55;;;6.20;;
48993;SDS011;34804;49.214;12.276;2023-06-24T05:06:58;12.55;;;6.60;;
48993;SDS011;34804;49.214;12.276;2023-06-24T05:09:24;9.80;;;5.97;;
48993;SDS011;34804;49.214;12.276;2023-06-24T05:11:51;11.88;;;6.13;;
48993;SDS011;34804;49.214;12.276;2023-06-24T05:14:18;12.20;;;5.47;;
48993;SDS011;34804;49.214;12.276;2023-06-24T05:16:45;10.32;;;6.15;;
48993;SDS011;34804;49.214;12.276;2023-06-24T05:19:12;11.82;;;6.40;;
48993;SDS011;34804;49.214;12.276;2023-06-24T05:21:38;11.20;;;6.05;;
48993;SDS011;34804;49.214;12.276;2023-06-24T05:24:05;9.52;;;6.38;;
48993;SDS011;34804;49.214;12.276;2023-06-24T05:26:32;11.88;;;6.20;;
48993;SDS011;34804;49.214;12.276;2023-06-24T05:28:59;12.35;;;6.80;;
48993;SDS011;34804;49.214;12.276;2023-06-24T05:31:26;14.95;;;6.60;;
48993;SDS011;34804;49.214;12.276;2023-06-24T05:33:53;12.68;;;6.80;;
48993;SDS011;34804;49.214;12.276;2023-06-24T05:36:19;11.65;;;7.18;;
48993;SDS011;34804;49.214;12.276;2023-06-24T05:38:47;12.07;;;6.97;;
48993;SDS011;34804;49.214;12.276;2023-06-24T05:41:14;12.45;;;6.53;;
48993;SDS011;34804;49.214;12.276;2023-06-24T05:43:42;9.95;;;6.60;;
48993;SDS011;34804;49.214;12.276;2023-06-24T05:46:10;10.45;;;6.45;;
48993;SDS011;34804;49.214;12.276;2023-06-24T05:48:37;13.25;;;7.07;;
48993;SDS011;34804;49.214;12.276;2023-06-24T05:51:03;9.68;;;6.47;;
48993;SDS011;34804;49.214;12.276;2023-06-24T05:53:30;9.98;;;6.10;;
48993;SDS011;34804;49.214;12.276;2023-06-24T05:55:57;11.88;;;6.18;;
48993;SDS011;34804;49.214;12.276;2023-06-24T05:58:24;9.00;;;5.68;;
48993;SDS011;34804;49.214;12.276;2023-06-24T06:00:51;9.85;;;5.45;;
48993;SDS011;34804;49.214;12.276;2023-06-24T06:03:18;10.75;;;5.68;;
48993;SDS011;34804;49.214;12.276;2023-06-24T06:05:45;10.50;;;5.15;;
48993;SDS011;34804;49.214;12.276;2023-06-24T06:08:12;9.25;;;6.32;;
48993;SDS011;34804;49.214;12.276;2023-06-24T06:10:39;10.70;;;5.72;;
48993;SDS011;34804;49.214;12.276;2023-06-24T06:13:05;11.25;;;5.75;;
48993;SDS011;34804;49.214;12.276;2023-06-24T06:15:32;8.80;;;5.72;;
48993;SDS011;34804;49.214;12.276;2023-06-24T06:17:59;10.88;;;5.82;;
48993;SDS011;34804;49.214;12.276;2023-06-24T06:20:27;12.35;;;6.28;;
48993;SDS011;34804;49.214;12.276;2023-06-24T06:22:53;9.40;;;5.90;;
48993;SDS011;34804;49.214;12.276;2023-06-24T06:25:20;8.68;;;5.80;;
48993;SDS011;34804;49.214;12.276;2023-06-24T06:27:47;11.90;;;4.85;;
48993;SDS011;34804;49.214;12.276;2023-06-24T06:30:14;7.88;;;4.85;;
48993;SDS011;34804;49.214;12.276;2023-06-24T06:32:41;8.70;;;5.05;;
48993;SDS011;34804;49.214;12.276;2023-06-24T06:35:08;10.00;;;5.65;;
48993;SDS011;34804;49.214;12.276;2023-06-24T06:37:35;11.10;;;5.43;;
48993;SDS011;34804;49.214;12.276;2023-06-24T06:40:02;8.23;;;5.13;;
48993;SDS011;34804;49.214;12.276;2023-06-24T06:42:29;7.88;;;5.22;;
48993;SDS011;34804;49.214;12.276;2023-06-24T06:44:56;9.27;;;5.75;;
48993;SDS011;34804;49.214;12.276;2023-06-24T06:47:23;8.02;;;5.07;;
48993;SDS011;34804;49.214;12.276;2023-06-24T06:49:50;9.50;;;6.15;;
48993;SDS011;34804;49.214;12.276;2023-06-24T06:52:17;10.32;;;5.53;;
48993;SDS011;34804;49.214;12.276;2023-06-24T06:54:44;9.15;;;5.63;;
48993;SDS011;34804;49.214;12.276;2023-06-24T06:57:10;10.00;;;5.80;;
48993;SDS011;34804;49.214;12.276;2023-06-24T06:59:37;7.95;;;5.35;;
48993;SDS011;34804;49.214;12.276;2023-06-24T07:02:04;9.35;;;5.45;;
48993;SDS011;34804;49.214;12.276;2023-06-24T07:04:31;10.85;;;6.20;;
48993;SDS011;34804;49.214;12.276;2023-06-24T07:06:59;9.07;;;5.60;;
48993;SDS011;34804;49.214;12.276;2023-06-24T07:09:26;7.93;;;5.30;;
48993;SDS011;34804;49.214;12.276;2023-06-24T07:11:52;8.52;;;5.28;;
48993;SDS011;34804;49.214;12.276;2023-06-24T07:14:19;8.68;;;5.50;;
48993;SDS011;34804;49.214;12.276;2023-06-24T07:16:46;8.65;;;5.60;;
48993;SDS011;34804;49.214;12.276;2023-06-24T07:19:13;8.98;;;5.38;;
48993;SDS011;34804;49.214;12.276;2023-06-24T07:21:40;9.63;;;5.47;;
48993;SDS011;34804;49.214;12.276;2023-06-24T07:24:10;8.30;;;5.30;;
48993;SDS011;34804;49.214;12.276;2023-06-24T07:26:37;8.35;;;5.63;;
48993;SDS011;34804;49.214;12.276;2023-06-24T07:29:07;8.13;;;5.10;;
48993;SDS011;34804;49.214;12.276;2023-06-24T07:31:36;7.72;;;5.43;;
48993;SDS011;34804;49.214;12.276;2023-06-24T07:34:04;7.93;;;5.13;;
48993;SDS011;34804;49.214;12.276;2023-06-24T07:36:31;8.75;;;5.38;;
48993;SDS011;34804;49.214;12.276;2023-06-24T07:38:58;8.75;;;4.95;;
48993;SDS011;34804;49.214;12.276;2023-06-24T07:41:25;8.77;;;5.53;;
48993;SDS011;34804;49.214;12.276;2023-06-24T07:43:52;7.90;;;5.20;;
48993;SDS011;34804;49.214;12.276;2023-06-24T07:46:19;8.35;;;5.57;;
48993;SDS011;34804;49.214;12.276;2023-06-24T07:48:46;8.63;;;6.10;;
48993;SDS011;34804;49.214;12.276;2023-06-24T07:51:13;8.07;;;5.53;;
48993;SDS011;34804;49.214;12.276;2023-06-24T07:53:40;9.00;;;5.72;;
48993;SDS011;34804;49.214;12.276;2023-06-24T07:56:07;9.63;;;6.57;;
48993;SDS011;34804;49.214;12.276;2023-06-24T07:58:34;7.85;;;5.85;;
48993;SDS011;34804;49.214;12.276;2023-06-24T08:01:01;10.07;;;5.63;;
48993;SDS011;34804;49.214;12.276;2023-06-24T08:03:28;7.00;;;4.82;;
48993;SDS011;34804;49.214;12.276;2023-06-24T08:05:55;9.18;;;5.38;;
48993;SDS011;34804;49.214;12.276;2023-06-24T08:08:23;9.02;;;5.75;;
48993;SDS011;34804;49.214;12.276;2023-06-24T08:10:50;8.23;;;5.32;;
48993;SDS011;34804;49.214;12.276;2023-06-24T08:13:16;8.23;;;5.13;;
48993;SDS011;34804;49.214;12.276;2023-06-24T08:15:43;8.60;;;4.93;;
48993;SDS011;34804;49.214;12.276;2023-06-24T08:18:11;7.90;;;5.00;;
48993;SDS011;34804;49.214;12.276;2023-06-24T08:20:38;8.40;;;4.90;;
48993;SDS011;34804;49.214;12.276;2023-06-24T08:23:04;7.43;;;4.70;;
48993;SDS011;34804;49.214;12.276;2023-06-24T08:25:31;7.22;;;4.65;;
48993;SDS011;34804;49.214;12.276;2023-06-24T08:27:59;9.40;;;4.90;;
48993;SDS011;34804;49.214;12.276;2023-06-24T08:30:26;7.72;;;4.93;;
48993;SDS011;34804;49.214;12.276;2023-06-24T08:32:52;13.85;;;5.00;;
48993;SDS011;34804;49.214;12.276;2023-06-24T08:35:19;9.38;;;5.50;;
48993;SDS011;34804;49.214;12.276;2023-06-24T08:37:46;6.03;;;3.88;;
48993;SDS011;34804;49.214;12.276;2023-06-24T08:40:13;9.07;;;3.88;;
48993;SDS011;34804;49.214;12.276;2023-06-24T08:42:40;7.93;;;4.30;;
48993;SDS011;34804;49.214;12.276;2023-06-24T08:45:07;6.18;;;3.78;;
48993;SDS011;34804;49.214;12.276;2023-06-24T08:47:34;7.20;;;4.78;;
48993;SDS011;34804;49.214;12.276;2023-06-24T08:50:03;7.63;;;4.63;;
48993;SDS011;34804;49.214;12.276;2023-06-24T08:52:35;7.30;;;4.77;;
48993;SDS011;34804;49.214;12.276;2023-06-24T08:55:04;6.72;;;4.47;;
48993;SDS011;34804;49.214;12.276;2023-06-24T08:57:33;6.50;;;3.80;;
48993;SDS011;34804;49.214;12.276;2023-06-24T09:00:00;7.00;;;4.00;;
48993;SDS011;34804;49.214;12.276;2023-06-24T09:02:27;6.07;;;3.60;;
48993;SDS011;34804;49.214;12.276;2023-06-24T09:04:56;6.28;;;3.92;;
48993;SDS011;34804;49.214;12.276;2023-06-24T09:07:25;7.05;;;3.92;;
48993;SDS011;34804;49.214;12.276;2023-06-24T09:09:53;6.25;;;3.70;;
48993;SDS011;34804;49.214;12.276;2023-06-24T09:12:20;6.68;;;3.40;;
48993;SDS011;34804;49.214;12.276;2023-06-24T09:14:50;10.30;;;4.70;;
48993;SDS011;34804;49.214;12.276;2023-06-24T09:17:17;6.13;;;3.20;;
48993;SDS011;34804;49.214;12.276;2023-06-24T09:19:48;8.18;;;3.33;;
48993;SDS011;34804;49.214;12.276;2023-06-24T09:22:16;5.32;;;3.30;;
48993;SDS011;34804;49.214;12.276;2023-06-24T09:24:47;7.13;;;3.17;;
48993;SDS011;34804;49.214;12.276;2023-06-24T09:27:15;5.93;;;3.20;;
48993;SDS011;34804;49.214;12.276;2023-06-24T09:29:44;7.22;;;3.35;;
48993;SDS011;34804;49.214;12.276;2023-06-24T09:32:10;6.53;;;3.20;;
48993;SDS011;34804;49.214;12.276;2023-06-24T09:34:38;6.20;;;3.30;;
48993;SDS011;34804;49.214;12.276;2023-06-24T09:37:05;6.45;;;3.97;;
48993;SDS011;34804;49.214;12.276;2023-06-24T09:39:35;7.47;;;4.00;;
48993;SDS011;34804;49.214;12.276;2023-06-24T09:42:04;6.85;;;4.28;;
48993;SDS011;34804;49.214;12.276;2023-06-24T09:44:33;6.78;;;3.40;;
48993;SDS011;34804;49.214;12.276;2023-06-24T09:47:00;5.35;;;3.00;;
48993;SDS011;34804;49.214;12.276;2023-06-24T09:49:27;4.95;;;2.75;;
48993;SDS011;34804;49.214;12.276;2023-06-24T09:51:58;5.40;;;3.00;;
48993;SDS011;34804;49.214;12.276;2023-06-24T09:54:26;5.30;;;2.60;;
48993;SDS011;34804;49.214;12.276;2023-06-24T09:56:59;5.13;;;3.08;;
48993;SDS011;34804;49.214;12.276;2023-06-24T09:59:28;5.57;;;2.67;;
48993;SDS011;34804;49.214;12.276;2023-06-24T10:01:57;8.60;;;3.40;;
48993;SDS011;34804;49.214;12.276;2023-06-24T10:04:25;5.38;;;2.97;;
48993;SDS011;34804;49.214;12.276;2023-06-24T10:06:54;7.80;;;3.35;;
48993;SDS011;34804;49.214;12.276;2023-06-24T10:09:22;5.13;;;2.88;;
48993;SDS011;34804;49.214;12.276;2023-06-24T10:11:49;8.02;;;3.10;;
48993;SDS011;34804;49.214;12.276;2023-06-24T10:14:16;5.40;;;2.55;;
48993;SDS011;34804;49.214;12.276;2023-06-24T10:16:44;4.68;;;2.30;;
48993;SDS011;34804;49.214;12.276;2023-06-24T10:19:13;4.82;;;2.63;;
48993;SDS011;34804;49.214;12.276;2023-06-24T10:21:57;5.70;;;2.90;;
48993;SDS011;34804;49.214;12.276;2023-06-24T10:27:00;5.13;;;2.80;;
48993;SDS011;34804;49.214;12.276;2023-06-24T10:29:35;5.82;;;2.85;;
48993;SDS011;34804;49.214;12.276;2023-06-24T10:32:04;4.57;;;2.60;;
48993;SDS011;34804;49.214;12.276;2023-06-24T10:44:46;6.95;;;2.67;;
48993;SDS011;34804;49.214;12.276;2023-06-24T10:47:13;5.55;;;2.90;;
48993;SDS011;34804;49.214;12.276;2023-06-24T10:49:40;6.90;;;2.80;;
48993;SDS011;34804;49.214;12.276;2023-06-24T10:52:08;4.75;;;2.70;;
48993;SDS011;34804;49.214;12.276;2023-06-24T10:54:37;4.40;;;2.35;;
48993;SDS011;34804;49.214;12.276;2023-06-24T10:57:04;5.13;;;2.55;;
48993;SDS011;34804;49.214;12.276;2023-06-24T10:59:35;6.43;;;2.72;;
48993;SDS011;34804;49.214;12.276;2023-06-24T11:04:34;4.90;;;2.72;;
48993;SDS011;34804;49.214;12.276;2023-06-24T11:07:18;4.30;;;2.53;;
48993;SDS011;34804;49.214;12.276;2023-06-24T11:09:49;5.88;;;2.75;;
48993;SDS011;34804;49.214;12.276;2023-06-24T11:12:17;4.55;;;2.70;;
48993;SDS011;34804;49.214;12.276;2023-06-24T11:14:44;5.43;;;2.80;;
48993;SDS011;34804;49.214;12.276;2023-06-24T11:17:11;4.95;;;2.60;;
48993;SDS011;34804;49.214;12.276;2023-06-24T11:19:38;4.28;;;2.33;;
48993;SDS011;34804;49.214;12.276;2023-06-24T11:22:06;5.20;;;2.53;;
48993;SDS011;34804;49.214;12.276;2023-06-24T11:24:34;5.03;;;2.42;;
48993;SDS011;34804;49.214;12.276;2023-06-24T11:27:03;4.50;;;2.45;;
48993;SDS011;34804;49.214;12.276;2023-06-24T11:29:31;4.85;;;2.60;;
48993;SDS011;34804;49.214;12.276;2023-06-24T11:32:01;6.20;;;2.92;;
48993;SDS011;34804;49.214;12.276;2023-06-24T11:34:29;4.75;;;2.40;;
48993;SDS011;34804;49.214;12.276;2023-06-24T11:36:56;5.68;;;2.55;;
48993;SDS011;34804;49.214;12.276;2023-06-24T11:39:26;6.72;;;2.60;;
48993;SDS011;34804;49.214;12.276;2023-06-24T11:41:54;5.45;;;2.63;;
48993;SDS011;34804;49.214;12.276;2023-06-24T11:44:24;4.68;;;2.67;;
48993;SDS011;34804;49.214;12.276;2023-06-24T11:46:51;4.40;;;2.47;;
48993;SDS011;34804;49.214;12.276;2023-06-24T11:49:18;4.15;;;2.40;;
48993;SDS011;34804;49.214;12.276;2023-06-24T11:51:49;4.72;;;2.60;;
48993;SDS011;34804;49.214;12.276;2023-06-24T11:54:17;5.82;;;2.92;;
48993;SDS011;34804;49.214;12.276;2023-06-24T11:56:49;7.25;;;3.17;;
48993;SDS011;34804;49.214;12.276;2023-06-24T11:59:19;4.78;;;2.70;;
48993;SDS011;34804;49.214;12.276;2023-06-24T12:01:52;5.45;;;2.72;;
48993;SDS011;34804;49.214;12.276;2023-06-24T12:04:21;6.20;;;2.93;;
48993;SDS011;34804;49.214;12.276;2023-06-24T12:06:53;5.50;;;2.45;;
48993;SDS011;34804;49.214;12.276;2023-06-24T12:09:20;4.63;;;2.28;;
48993;SDS011;34804;49.214;12.276;2023-06-24T12:11:47;4.57;;;2.58;;
48993;SDS011;34804;49.214;12.276;2023-06-24T12:14:14;5.57;;;2.50;;
48993;SDS011;34804;49.214;12.276;2023-06-24T12:16:41;4.60;;;2.33;;
48993;SDS011;34804;49.214;12.276;2023-06-24T12:19:08;5.13;;;2.50;;
48993;SDS011;34804;49.214;12.276;2023-06-24T12:21:35;5.57;;;2.78;;
48993;SDS011;34804;49.214;12.276;2023-06-24T12:24:02;4.85;;;2.47;;
48993;SDS011;34804;49.214;12.276;2023-06-24T12:26:30;5.45;;;2.78;;
48993;SDS011;34804;49.214;12.276;2023-06-24T12:28:58;4.30;;;2.40;;
48993;SDS011;34804;49.214;12.276;2023-06-24T12:31:24;6.00;;;2.72;;
48993;SDS011;34804;49.214;12.276;2023-06-24T12:33:51;4.60;;;2.40;;
48993;SDS011;34804;49.214;12.276;2023-06-24T12:36:19;5.07;;;2.67;;
48993;SDS011;34804;49.214;12.276;2023-06-24T12:38:47;4.55;;;2.40;;
48993;SDS011;34804;49.214;12.276;2023-06-24T12:41:14;5.32;;;2.53;;
48993;SDS011;34804;49.214;12.276;2023-06-24T12:43:41;5.55;;;2.60;;
48993;SDS011;34804;49.214;12.276;2023-06-24T12:46:07;5.47;;;2.58;;
48993;SDS011;34804;49.214;12.276;2023-06-24T12:48:34;5.60;;;2.53;;
48993;SDS011;34804;49.214;12.276;2023-06-24T12:51:01;4.60;;;2.20;;
48993;SDS011;34804;49.214;12.276;2023-06-24T12:53:28;5.15;;;2.20;;
48993;SDS011;34804;49.214;12.276;2023-06-24T12:55:55;4.57;;;2.53;;
48993;SDS011;34804;49.214;12.276;2023-06-24T12:58:23;4.53;;;2.22;;
48993;SDS011;34804;49.214;12.276;2023-06-24T13:00:51;5.60;;;2.42;;
48993;SDS011;34804;49.214;12.276;2023-06-24T13:03:18;4.90;;;2.70;;
48993;SDS011;34804;49.214;12.276;2023-06-24T13:05:45;4.20;;;2.38;;
48993;SDS011;34804;49.214;12.276;2023-06-24T13:08:12;4.63;;;2.30;;
48993;SDS011;34804;49.214;12.276;2023-06-24T13:10:39;4.57;;;2.40;;
48993;SDS011;34804;49.214;12.276;2023-06-24T13:13:07;6.20;;;2.47;;
48993;SDS011;34804;49.214;12.276;2023-06-24T13:15:34;4.50;;;2.60;;
48993;SDS011;34804;49.214;12.276;2023-06-24T13:18:00;4.63;;;2.65;;
48993;SDS011;34804;49.214;12.276;2023-06-24T13:20:28;4.60;;;2.50;;
48993;SDS011;34804;49.214;12.276;2023-06-24T13:22:55;5.18;;;2.50;;
48993;SDS011;34804;49.214;12.276;2023-06-24T13:25:21;4.85;;;2.53;;
48993;SDS011;34804;49.214;12.276;2023-06-24T13:27:48;5.55;;;2.50;;
48993;SDS011;34804;49.214;12.276;2023-06-24T13:30:15;4.60;;;2.40;;
48993;SDS011;34804;49.214;12.276;2023-06-24T13:32:42;5.95;;;2.72;;
48993;SDS011;34804;49.214;12.276;2023-06-24T13:35:09;7.40;;;2.70;;
48993;SDS011;34804;49.214;12.276;2023-06-24T13:37:36;4.45;;;2.40;;
48993;SDS011;34804;49.214;12.276;2023-06-24T13:40:05;5.13;;;2.42;;
48993;SDS011;34804;49.214;12.276;2023-06-24T13:42:32;4.65;;;2.58;;
48993;SDS011;34804;49.214;12.276;2023-06-24T13:44:59;5.00;;;2.60;;
48993;SDS011;34804;49.214;12.276;2023-06-24T13:47:26;4.85;;;2.47;;
48993;SDS011;34804;49.214;12.276;2023-06-24T13:49:53;5.68;;;2.67;;
48993;SDS011;34804;49.214;12.276;2023-06-24T13:52:20;5.43;;;2.53;;
48993;SDS011;34804;49.214;12.276;2023-06-24T13:54:47;5.28;;;2.55;;
48993;SDS011;34804;49.214;12.276;2023-06-24T13:57:14;7.28;;;2.63;;
48993;SDS011;34804;49.214;12.276;2023-06-24T13:59:42;4.60;;;2.38;;
48993;SDS011;34804;49.214;12.276;2023-06-24T14:02:09;4.85;;;2.70;;
48993;SDS011;34804;49.214;12.276;2023-06-24T14:04:37;6.70;;;3.00;;
48993;SDS011;34804;49.214;12.276;2023-06-24T14:07:07;4.63;;;2.60;;
48993;SDS011;34804;49.214;12.276;2023-06-24T14:09:34;5.90;;;3.05;;
48993;SDS011;34804;49.214;12.276;2023-06-24T14:12:01;4.60;;;2.50;;
48993;SDS011;34804;49.214;12.276;2023-06-24T14:14:28;5.32;;;3.05;;
48993;SDS011;34804;49.214;12.276;2023-06-24T14:16:55;4.75;;;2.80;;
48993;SDS011;34804;49.214;12.276;2023-06-24T14:19:22;5.05;;;2.67;;
48993;SDS011;34804;49.214;12.276;2023-06-24T14:21:51;4.78;;;3.00;;
48993;SDS011;34804;49.214;12.276;2023-06-24T14:24:18;5.15;;;2.70;;
48993;SDS011;34804;49.214;12.276;2023-06-24T14:26:45;5.15;;;2.85;;
48993;SDS011;34804;49.214;12.276;2023-06-24T14:29:15;6.20;;;3.00;;
48993;SDS011;34804;49.214;12.276;2023-06-24T14:31:42;4.68;;;2.75;;
48993;SDS011;34804;49.214;12.276;2023-06-24T14:34:09;5.15;;;3.15;;
48993;SDS011;34804;49.214;12.276;2023-06-24T14:36:36;4.32;;;2.70;;
48993;SDS011;34804;49.214;12.276;2023-06-24T14:39:03;6.75;;;2.90;;
48993;SDS011;34804;49.214;12.276;2023-06-24T14:41:30;6.22;;;3.20;;
48993;SDS011;34804;49.214;12.276;2023-06-24T14:43:57;4.53;;;2.80;;
48993;SDS011;34804;49.214;12.276;2023-06-24T14:46:24;5.57;;;3.03;;
48993;SDS011;34804;49.214;12.276;2023-06-24T14:48:51;7.63;;;2.75;;
48993;SDS011;34804;49.214;12.276;2023-06-24T14:51:18;4.82;;;2.95;;
48993;SDS011;34804;49.214;12.276;2023-06-24T14:53:44;4.97;;;3.10;;
48993;SDS011;34804;49.214;12.276;2023-06-24T14:56:11;4.55;;;2.80;;